Latest Weather Observations for Bombala AWS

IDN60801

Issued at 5:32 pm EDT Tuesday 17 January 2017 (issued every 30 minutes, with the page automatically refreshed every 10 minutes)

About weather observations | Map of weather stations | Latest weather observations for NSW | Other Formats
Station Details ID: 070328 Name: BOMBALA AWS Lat: -37.00 Lon: 149.23 Height: 760.5 m
Data from the previous 72 hours. | See also: Recent months at Bombala AWS
Date/Time
EDT
Temp
°C
App
Temp
°C
Dew
Point
°C
Rel
Hum
%
Delta-T
°C
Wind Press
QNH
hPa
Press
MSL
hPa
Rain since
9am
mm
Dir  Spd
km/h
Gust
km/h
Spd
kts
Gust
kts
17/05:30pm 34.1 39.4 28.6 73 4.2 WNW 19 37 10 20 1011.4 1008.3 0.2
17/05:00pm 33.5 37.8 28.0 73 4.1 WNW 22 32 12 17 1011.7 1008.6 0.2
17/04:30pm 32.8 36.3 28.0 76 3.6 NW 26 41 14 22 1012.0 1008.9 0.2
17/04:00pm 32.7 35.8 27.9 76 3.6 WNW 28 41 15 22 1012.2 1009.1 0.2
17/03:30pm 33.3 34.8 27.6 72 4.3 WNW 35 50 19 27 1012.0 1008.9 0.2
17/03:00pm 34.1 36.1 28.3 72 4.4 WNW 35 57 19 31 1012.1 1009.0 0.2
17/02:57pm 34.2 36.3 28.4 72 4.4 WNW 35 57 19 31 1012.0 1008.9 0.2
17/02:47pm 34.5 37.0 28.9 72 4.2 WNW 35 52 19 28 1012.2 1009.1 0.2
17/02:30pm 33.9 34.3 28.1 71 4.4 W 43 57 23 31 1012.4 1009.4 0.2
17/02:00pm 34.2 34.7 28.2 71 4.5 WNW 43 63 23 34 1012.6 1009.5 0.2
17/01:30pm 33.4 32.0 26.9 69 4.8 WNW 48 67 26 36 1012.7 1009.6 0.2
17/01:03pm 33.2 30.5 26.7 68 4.8 WNW 54 72 29 39 1012.7 1009.6 0.2
17/01:00pm 33.1 30.3 26.6 68 4.8 WNW 54 72 29 39 1012.8 1009.7 0.2
17/12:30pm 33.1 31.3 26.4 68 4.9 WNW 48 72 26 39 1013.3 1010.2 0.2
17/12:10pm 33.2 31.9 26.5 68 4.9 WNW 46 65 25 35 1013.5 1010.5 0.2
17/12:00pm 32.9 30.2 26.2 68 4.9 WNW 52 65 28 35 1013.5 1010.5 0.2
17/11:30am 31.7 29.7 24.8 67 5.0 W 44 65 24 35 1013.7 1010.7 0.2
17/11:28am 31.8 29.7 24.7 66 5.1 W 44 65 24 35 1013.5 1010.5 0.2
17/11:00am 31.8 32.4 24.1 63 5.5 WNW 28 44 15 24 1013.7 1010.7 0.0
17/10:30am 30.2 31.1 23.4 67 4.8 NW 24 35 13 19 1014.2 1011.1 0.0
17/10:00am 25.1 26.6 20.6 76 3.0 NNW 13 17 7 9 1014.5 1011.4 0.0
17/09:30am 24.4 25.9 20.5 79 2.6 NNW 13 20 7 11 1014.7 1011.7 0.0
17/09:00am 23.1 24.7 19.9 82 2.1 NNW 11 13 6 7 1014.8 1011.8 0.0
17/08:30am 19.4 21.0 19.1 98 0.2 NW 9 13 5 7 1014.7 1011.7 0.0
17/08:00am 18.0 19.5 18.0 100 0.0 NW 7 9 4 5 1014.7 1011.7 0.0
17/07:30am 15.3 15.3 15.3 100 0.0 NNW 9 11 5 6 1014.4 1011.3 0.0
17/07:00am 13.6 13.0 13.6 100 0.0 N 9 9 5 5 1014.3 1011.2 0.0
17/06:30am 13.9 14.4 13.9 100 0.0 SSE 4 6 2 3 1014.2 1011.1 0.0
17/06:00am 13.3 12.3 13.3 100 0.0 N 11 13 6 7 1013.8 1010.8 0.0
17/05:30am 13.3 13.6 13.3 100 0.0 SE 4 7 2 4 1014.0 1010.9 0.0
17/05:00am 13.7 13.2 13.7 100 0.0 NNW 9 13 5 7 1013.8 1010.8 0.0
17/04:30am 14.1 13.3 14.1 100 0.0 NW 11 13 6 7 1013.7 1010.7 0.0
17/04:00am 12.7 11.8 12.7 100 0.0 NNW 9 13 5 7 1013.5 1010.5 0.0
17/03:30am 13.5 12.1 13.5 100 0.0 NNW 13 15 7 8 1013.7 1010.7 0.0
17/03:00am 13.9 13.1 13.9 100 0.0 NW 11 13 6 7 1014.2 1011.1 0.0
17/02:30am 12.9 11.7 12.9 100 0.0 NNW 11 13 6 7 1014.5 1011.4 0.0
17/02:00am 13.4 12.4 13.4 100 0.0 NW 11 11 6 6 1014.9 1011.9 0.0
17/01:30am 13.9 13.1 13.9 100 0.0 NNW 11 11 6 6 1015.4 1012.3 0.0
17/01:00am 14.4 14.5 14.4 100 0.0 NNW 7 9 4 5 1015.7 1012.6 0.0
17/12:30am 14.8 16.4 14.8 100 0.0 CALM 0 0 0 0 1015.9 1012.9 0.0
17/12:00am 15.7 17.6 15.7 100 0.0 CALM 0 0 0 0 1016.2 1013.2 0.0
 
Date/Time
EDT
Temp
°C
App
Temp
°C
Dew
Point
°C
Rel
Hum
%
Delta-T
°C
Wind Press
QNH
hPa
Press
MSL
hPa
Rain since
9am
mm
Dir  Spd
km/h
Gust
km/h
Spd
kts
Gust
kts
16/11:30pm 16.0 18.0 16.0 100 0.0 CALM 0 0 0 0 1016.4 1013.4 0.0
16/11:00pm 16.5 18.7 16.5 100 0.0 CALM 0 2 0 1 1016.6 1013.6 0.0
16/10:30pm 17.3 19.8 17.3 100 0.0 CALM 0 2 0 1 1017.0 1013.9 0.0
16/10:00pm 17.4 19.2 17.4 100 0.0 ENE 4 7 2 4 1016.9 1013.8 0.0
16/09:30pm 18.4 20.2 18.2 99 0.1 NE 6 9 3 5 1016.9 1013.8 0.0
16/09:00pm 18.8 20.3 18.1 96 0.4 ENE 7 11 4 6 1017.0 1013.9 0.0
16/08:30pm 19.9 21.6 18.6 92 0.8 ENE 7 9 4 5 1016.9 1013.8 0.0
16/08:00pm 21.5 22.2 19.6 89 1.2 ENE 15 24 8 13 1016.4 1013.4 0.0
16/07:30pm 23.3 24.8 21.2 88 1.4 NE 15 20 8 11 1016.2 1013.2 0.0
16/07:00pm 24.6 26.0 21.9 85 1.8 E 17 24 9 13 1016.1 1013.1 0.0
16/06:30pm 25.8 27.9 22.5 82 2.3 E 15 24 8 13 1015.7 1012.6 0.0
16/06:00pm 26.5 28.3 23.2 82 2.3 E 19 26 10 14 1015.5 1012.4 0.0
16/05:30pm 27.5 30.1 23.9 81 2.5 ESE 17 26 9 14 1015.1 1012.1 0.0
16/05:00pm 28.0 30.5 23.8 78 3.0 ESE 17 24 9 13 1014.9 1011.9 0.0
16/04:30pm 29.3 32.9 24.4 75 3.5 ESE 13 24 7 13 1014.9 1011.9 0.0
16/04:00pm 29.5 32.6 24.8 76 3.4 ESE 17 24 9 13 1014.9 1011.9 0.0
16/03:30pm 29.6 32.3 24.7 75 3.5 SE 19 33 10 18 1014.7 1011.7 0.0
16/03:00pm 32.3 35.0 22.1 55 7.1 SSE 11 19 6 10 1014.9 1011.9 0.0
16/02:30pm 31.1 33.4 20.7 54 7.1 SSE 9 19 5 10 1015.1 1012.1 0.0
16/02:00pm 31.1 32.3 19.8 51 7.6 WSW 13 26 7 14 1015.4 1012.3 0.0
16/01:30pm 30.9 31.1 19.3 50 7.8 WSW 17 30 9 16 1015.7 1012.6 0.0
16/01:00pm 30.5 29.9 18.9 50 7.7 WSW 20 30 11 16 1016.0 1013.0 0.0
16/12:30pm 29.4 28.9 17.9 50 7.5 SW 17 26 9 14 1016.2 1013.2 0.0
16/12:00pm 28.4 27.8 17.6 52 7.0 W 17 35 9 19 1016.4 1013.4 0.0
16/11:30am 26.9 28.7 18.7 60 5.4 W 7 20 4 11 1016.6 1013.6 0.0
16/11:00am 25.9 26.0 17.5 59 5.4 WNW 13 22 7 12 1017.0 1013.9 0.0
16/10:30am 23.9 24.3 17.2 66 4.3 NW 11 20 6 11 1017.2 1014.2 0.0
16/10:00am 22.1 24.6 21.8 98 0.2 NNW 11 17 6 9 1017.5 1014.5 0.0
16/09:30am 20.1 21.4 20.1 100 0.0 NW 13 17 7 9 1017.6 1014.6 0.0
16/09:00am 18.3 18.4 18.3 100 0.0 NW 15 19 8 10 1017.7 1014.7 0.0
16/08:30am 15.3 15.7 15.3 100 0.0 NNW 7 11 4 6 1017.7 1014.7 0.0
16/08:00am 12.2 12.1 12.2 100 0.0 NNW 4 6 2 3 1017.7 1014.7 0.0
16/07:30am 10.7 10.2 10.7 100 0.0 NNW 4 6 2 3 1017.4 1014.4 0.0
16/07:00am 10.0 9.3 10.0 100 0.0 NNW 4 6 2 3 1017.3 1014.3 0.0
16/06:30am 9.6 9.2 9.6 100 0.0 NNW 2 4 1 2 1017.2 1014.2 0.0
16/06:00am 9.5 8.3 9.5 100 0.0 NNW 6 7 3 4 1017.1 1014.1 0.0
16/05:30am 9.5 8.3 9.5 100 0.0 NNW 6 6 3 3 1017.0 1013.9 0.0
16/05:00am 10.5 10.3 10.5 100 0.0 NNW 2 4 1 2 1016.8 1013.7 0.0
16/04:30am 10.8 10.3 10.8 100 0.0 NNW 4 6 2 3 1016.6 1013.6 0.0
16/04:00am 11.2 10.8 11.2 100 0.0 NNW 4 4 2 2 1016.6 1013.6 0.0
16/03:30am 10.6 10.4 10.6 100 0.0 NNW 2 4 1 2 1017.0 1013.9 0.0
16/03:00am 11.1 11.1 11.1 100 0.0 NNW 2 2 1 1 1017.2 1014.2 0.0
16/02:30am 11.9 11.7 11.9 100 0.0 NNW 4 4 2 2 1017.4 1014.4 0.0
16/02:00am 11.9 11.4 11.9 100 0.0 NNW 6 7 3 4 1017.7 1014.7 0.0
16/01:30am 12.9 12.7 12.9 100 0.0 NNW 6 7 3 4 1017.9 1014.9 0.0
16/01:00am 13.3 13.0 13.3 100 0.0 N 7 11 4 6 1018.2 1015.1 0.0
16/12:30am 13.4 13.1 13.4 100 0.0 NNE 7 11 4 6 1018.5 1015.5 0.0
16/12:00am 13.7 13.2 13.7 100 0.0 NNE 9 13 5 7 1018.8 1015.8 0.0
 
Date/Time
EDT
Temp
°C
App
Temp
°C
Dew
Point
°C
Rel
Hum
%
Delta-T
°C
Wind Press
QNH
hPa
Press
MSL
hPa
Rain since
9am
mm
Dir  Spd
km/h
Gust
km/h
Spd
kts
Gust
kts
15/11:30pm 13.4 13.7 13.4 100 0.0 ENE 4 7 2 4 1019.1 1016.1 0.0
15/11:00pm 13.5 13.8 13.5 100 0.0 ENE 4 7 2 4 1019.4 1016.5 0.0
15/10:30pm 13.9 14.4 13.9 100 0.0 ENE 4 6 2 3 1019.3 1016.3 0.0
15/10:00pm 13.9 14.0 13.9 100 0.0 ENE 6 9 3 5 1019.3 1016.3 0.0
15/09:30pm 14.1 13.7 14.1 100 0.0 ENE 9 13 5 7 1019.3 1016.3 0.0
15/09:00pm 14.2 13.8 14.2 100 0.0 ENE 9 15 5 8 1019.0 1016.0 0.0
15/08:30pm 14.3 14.0 14.3 100 0.0 ENE 9 15 5 8 1018.7 1015.7 0.0
15/08:00pm 15.6 14.7 13.8 89 1.0 ENE 11 17 6 9 1018.3 1015.3 0.0
15/07:30pm 17.1 15.5 14.0 82 1.8 ENE 15 24 8 13 1017.6 1014.6 0.0
15/07:00pm 19.1 17.7 14.6 75 2.7 E 15 20 8 11 1017.3 1014.3 0.0
15/06:30pm 20.0 18.3 14.8 72 3.1 E 17 24 9 13 1017.0 1013.9 0.0
15/06:00pm 21.2 19.3 15.3 69 3.6 E 19 24 10 13 1016.6 1013.6 0.0
15/05:30pm 22.6 20.8 15.4 64 4.4 E 19 26 10 14 1016.2 1013.2 0.0
15/05:00pm 23.4 21.6 15.5 61 4.9 E 19 28 10 15 1016.3 1013.3 0.0
15/04:30pm 24.3 22.4 15.2 57 5.6 E 19 26 10 14 1016.3 1013.3 0.0
15/04:00pm 26.6 25.8 14.0 46 7.7 SE 11 19 6 10 1016.4 1013.4 0.0
15/03:30pm 25.9 24.2 13.7 47 7.4 SE 15 26 8 14 1016.3 1013.3 0.0
15/03:00pm 25.9 25.6 12.7 44 7.9 ENE 6 15 3 8 1016.5 1013.5 0.0
15/02:30pm 26.6 25.9 13.3 43 8.1 SSE 9 20 5 11 1016.6 1013.6 0.0
15/02:00pm 24.0 23.3 12.0 47 7.0 SW 7 17 4 9 1017.0 1013.9 0.0
15/01:30pm 22.7 21.4 11.4 49 6.5 SW 9 19 5 10 1017.2 1014.2 0.0
15/01:00pm 22.2 20.5 11.3 50 6.3 WSW 11 20 6 11 1017.5 1014.5 0.0
15/12:30pm 21.4 19.3 11.1 52 5.9 W 13 20 7 11 1017.7 1014.7 0.0
15/12:00pm 20.5 18.2 10.6 53 5.6 W 13 22 7 12 1017.7 1014.7 0.0
15/11:30am 19.3 16.8 11.1 59 4.6 WNW 15 28 8 15 1017.7 1014.7 0.0
15/11:00am 17.6 14.8 10.0 61 4.2 WSW 15 24 8 13 1017.9 1014.9 0.0
15/10:30am 16.9 13.9 10.5 66 3.5 W 17 24 9 13 1017.9 1014.9 0.0
15/10:00am 16.2 14.9 13.7 85 1.5 WSW 13 20 7 11 1018.0 1015.0 0.0
15/09:30am 14.2 12.1 12.4 89 1.0 WSW 15 22 8 12 1018.0 1015.0 0.0
15/09:00am 13.1 10.0 11.7 91 0.8 WSW 19 24 10 13 1017.8 1014.8 0.0
15/08:30am 12.1 9.3 11.5 96 0.3 WSW 17 28 9 15 1017.7 1014.7 0.0
15/08:00am 11.2 6.6 11.0 99 0.1 SW 26 33 14 18 1017.4 1014.4 0.0
15/07:30am 10.2 6.7 10.1 99 0.1 SW 19 24 10 13 1017.1 1014.1 0.0
15/07:00am 9.4 6.8 9.4 100 0.0 SW 13 24 7 13 1017.0 1013.9 0.0
15/06:30am 8.3 5.1 8.3 100 0.0 WSW 15 19 8 10 1016.5 1013.5 0.0
15/06:00am 7.7 6.4 7.7 100 0.0 WSW 4 13 2 7 1016.3 1013.3 0.0
15/05:30am 8.4 5.9 8.4 100 0.0 SW 11 15 6 8 1016.0 1013.0 0.0
15/05:00am 8.3 4.3 8.3 100 0.0 WSW 19 22 10 12 1015.4 1012.3 0.0
15/04:30am 8.8 6.4 8.8 100 0.0 SW 11 15 6 8 1015.6 1012.5 0.0
15/04:00am 9.0 6.7 9.0 100 0.0 WNW 11 19 6 10 1015.4 1012.3 0.0
15/03:30am 9.6 7.8 9.6 100 0.0 WSW 9 15 5 8 1015.4 1012.3 0.0
15/03:00am 10.3 6.3 10.3 100 0.0 WSW 22 28 12 15 1015.1 1012.1 0.0
15/02:30am 10.6 8.3 10.6 100 0.0 WSW 13 20 7 11 1015.4 1012.3 0.0
15/02:00am 10.9 8.4 10.9 100 0.0 WSW 15 22 8 12 1015.4 1012.3 0.0
15/01:30am 11.1 7.3 11.1 100 0.0 SW 22 26 12 14 1015.1 1012.1 0.0
15/01:00am 11.3 10.0 11.3 100 0.0 SW 9 15 5 8 1015.2 1012.2 0.0
15/12:30am 11.3 9.6 11.3 100 0.0 WSW 11 17 6 9 1015.1 1012.1 0.0
15/12:00am 11.7 11.5 11.7 100 0.0 SW 4 6 2 3 1014.9 1011.9 0.0
 
Date/Time
EDT
Temp
°C
App
Temp
°C
Dew
Point
°C
Rel
Hum
%
Delta-T
°C
Wind Press
QNH
hPa
Press
MSL
hPa
Rain since
9am
mm
Dir  Spd
km/h
Gust
km/h
Spd
kts
Gust
kts
14/11:30pm 11.5 10.8 11.5 100 0.0 S 6 11 3 6 1014.6 1011.5 0.0
14/11:00pm 11.3 10.4 11.3 100 0.0 SSE 7 9 4 5 1014.2 1011.1 0.0
14/10:30pm 11.9 10.4 11.9 100 0.0 SSE 11 15 6 8 1014.0 1010.9 0.0
14/10:00pm 12.4 11.8 12.4 100 0.0 E 7 13 4 7 1013.6 1010.6 0.0
14/09:30pm 14.4 12.5 14.2 99 0.1 S 17 22 9 12 1012.7 1009.6 0.0
14/09:00pm 14.3 13.5 14.1 99 0.1 S 11 17 6 9 1012.1 1009.0 0.0
14/08:30pm 16.1 14.7 14.6 91 0.9 S 15 19 8 10 1011.5 1008.4 0.0
14/08:00pm 18.8 16.4 12.8 68 3.5 SW 17 24 9 13 1010.6 1007.5 0.0
14/07:30pm 20.5 17.5 13.7 65 4.1 SW 22 28 12 15 1010.0 1006.8 0.0
14/07:00pm 21.4 18.0 13.6 61 4.7 SW 24 32 13 17 1009.5 1006.4 0.0
14/06:30pm 22.4 18.7 14.0 59 5.1 SW 26 33 14 18 1008.8 1005.6 0.0
14/06:00pm 23.7 21.5 14.9 57 5.4 SW 20 32 11 17 1008.2 1005.1 0.0

Other Formats:

Comma delimited format used in spreadsheet applications
http://www.bom.gov.au/fwo/IDN60801/IDN60801.94929.axf

JavaScript Object Notation format (JSON) in row-major order
http://www.bom.gov.au/fwo/IDN60801/IDN60801.94929.json